sensor_id;sensor_type;location;lat;lon;timestamp;P1;durP1;ratioP1;P2;durP2;ratioP2
17796;SDS011;55596;53.554;9.916;2023-06-26T00:01:40;8.43;;;7.63;;
17796;SDS011;55596;53.554;9.916;2023-06-26T00:04:08;8.85;;;7.95;;
17796;SDS011;55596;53.554;9.916;2023-06-26T00:06:39;8.57;;;7.72;;
17796;SDS011;55596;53.554;9.916;2023-06-26T00:09:06;8.70;;;7.90;;
17796;SDS011;55596;53.554;9.916;2023-06-26T00:11:35;9.77;;;7.45;;
17796;SDS011;55596;53.554;9.916;2023-06-26T00:14:02;9.95;;;9.05;;
17796;SDS011;55596;53.554;9.916;2023-06-26T00:16:29;8.90;;;8.10;;
17796;SDS011;55596;53.554;9.916;2023-06-26T00:18:56;8.73;;;7.88;;
17796;SDS011;55596;53.554;9.916;2023-06-26T00:21:24;10.90;;;7.78;;
17796;SDS011;55596;53.554;9.916;2023-06-26T00:23:53;9.85;;;8.90;;
17796;SDS011;55596;53.554;9.916;2023-06-26T00:26:20;12.32;;;8.48;;
17796;SDS011;55596;53.554;9.916;2023-06-26T00:28:48;10.90;;;8.43;;
17796;SDS011;55596;53.554;9.916;2023-06-26T00:31:15;11.25;;;7.97;;
17796;SDS011;55596;53.554;9.916;2023-06-26T00:33:43;8.98;;;8.18;;
17796;SDS011;55596;53.554;9.916;2023-06-26T00:36:10;9.40;;;8.60;;
17796;SDS011;55596;53.554;9.916;2023-06-26T00:38:38;9.10;;;8.30;;
17796;SDS011;55596;53.554;9.916;2023-06-26T00:41:05;9.53;;;8.63;;
17796;SDS011;55596;53.554;9.916;2023-06-26T00:43:37;8.73;;;8.03;;
17796;SDS011;55596;53.554;9.916;2023-06-26T00:46:06;9.30;;;8.50;;
17796;SDS011;55596;53.554;9.916;2023-06-26T00:48:35;9.13;;;8.33;;
17796;SDS011;55596;53.554;9.916;2023-06-26T00:51:03;10.00;;;9.00;;
17796;SDS011;55596;53.554;9.916;2023-06-26T00:53:30;8.80;;;8.10;;
17796;SDS011;55596;53.554;9.916;2023-06-26T00:55:57;10.20;;;9.20;;
17796;SDS011;55596;53.554;9.916;2023-06-26T00:58:25;9.63;;;8.73;;
17796;SDS011;55596;53.554;9.916;2023-06-26T01:00:52;9.20;;;8.30;;
17796;SDS011;55596;53.554;9.916;2023-06-26T01:03:21;10.23;;;8.97;;
17796;SDS011;55596;53.554;9.916;2023-06-26T01:05:49;9.43;;;8.53;;
17796;SDS011;55596;53.554;9.916;2023-06-26T01:08:17;9.83;;;8.60;;
17796;SDS011;55596;53.554;9.916;2023-06-26T01:10:44;9.93;;;8.90;;
17796;SDS011;55596;53.554;9.916;2023-06-26T01:13:12;9.93;;;9.00;;
17796;SDS011;55596;53.554;9.916;2023-06-26T01:15:39;12.20;;;8.80;;
17796;SDS011;55596;53.554;9.916;2023-06-26T01:18:07;8.93;;;8.23;;
17796;SDS011;55596;53.554;9.916;2023-06-26T01:20:36;10.47;;;9.00;;
17796;SDS011;55596;53.554;9.916;2023-06-26T01:23:07;10.27;;;9.30;;
17796;SDS011;55596;53.554;9.916;2023-06-26T01:25:41;10.20;;;9.10;;
17796;SDS011;55596;53.554;9.916;2023-06-26T01:28:11;10.40;;;9.50;;
17796;SDS011;55596;53.554;9.916;2023-06-26T01:30:42;10.27;;;9.37;;
17796;SDS011;55596;53.554;9.916;2023-06-26T01:33:09;9.53;;;8.73;;
17796;SDS011;55596;53.554;9.916;2023-06-26T01:35:37;16.10;;;9.27;;
17796;SDS011;55596;53.554;9.916;2023-06-26T01:38:11;10.20;;;9.10;;
17796;SDS011;55596;53.554;9.916;2023-06-26T01:40:39;9.87;;;8.87;;
17796;SDS011;55596;53.554;9.916;2023-06-26T01:43:06;10.50;;;9.50;;
17796;SDS011;55596;53.554;9.916;2023-06-26T01:45:37;11.23;;;8.93;;
17796;SDS011;55596;53.554;9.916;2023-06-26T01:48:05;9.43;;;8.63;;
17796;SDS011;55596;53.554;9.916;2023-06-26T01:50:33;9.40;;;8.60;;
17796;SDS011;55596;53.554;9.916;2023-06-26T01:53:02;9.70;;;8.80;;
17796;SDS011;55596;53.554;9.916;2023-06-26T01:55:32;11.70;;;8.37;;
17796;SDS011;55596;53.554;9.916;2023-06-26T01:58:01;9.60;;;8.70;;
17796;SDS011;55596;53.554;9.916;2023-06-26T02:00:28;9.43;;;8.53;;
17796;SDS011;55596;53.554;9.916;2023-06-26T02:02:57;9.63;;;8.67;;
17796;SDS011;55596;53.554;9.916;2023-06-26T02:05:24;10.10;;;9.20;;
17796;SDS011;55596;53.554;9.916;2023-06-26T02:07:51;10.13;;;9.10;;
17796;SDS011;55596;53.554;9.916;2023-06-26T02:10:18;9.70;;;8.77;;
17796;SDS011;55596;53.554;9.916;2023-06-26T02:12:46;10.63;;;9.63;;
17796;SDS011;55596;53.554;9.916;2023-06-26T02:15:13;9.60;;;8.80;;
17796;SDS011;55596;53.554;9.916;2023-06-26T02:17:40;10.03;;;9.13;;
17796;SDS011;55596;53.554;9.916;2023-06-26T02:20:09;10.40;;;9.40;;
17796;SDS011;55596;53.554;9.916;2023-06-26T02:22:36;10.57;;;9.57;;
17796;SDS011;55596;53.554;9.916;2023-06-26T02:25:03;10.43;;;9.53;;
17796;SDS011;55596;53.554;9.916;2023-06-26T02:27:30;9.73;;;8.77;;
17796;SDS011;55596;53.554;9.916;2023-06-26T02:29:58;9.83;;;8.93;;
17796;SDS011;55596;53.554;9.916;2023-06-26T02:32:25;10.10;;;9.10;;
17796;SDS011;55596;53.554;9.916;2023-06-26T02:34:52;9.90;;;8.90;;
17796;SDS011;55596;53.554;9.916;2023-06-26T02:37:21;10.30;;;9.27;;
17796;SDS011;55596;53.554;9.916;2023-06-26T02:39:48;10.00;;;9.00;;
17796;SDS011;55596;53.554;9.916;2023-06-26T02:42:15;9.93;;;8.97;;
17796;SDS011;55596;53.554;9.916;2023-06-26T02:44:42;9.63;;;8.77;;
17796;SDS011;55596;53.554;9.916;2023-06-26T02:47:11;11.10;;;9.00;;
17796;SDS011;55596;53.554;9.916;2023-06-26T02:49:38;9.77;;;8.87;;
17796;SDS011;55596;53.554;9.916;2023-06-26T02:52:05;9.30;;;8.53;;
17796;SDS011;55596;53.554;9.916;2023-06-26T02:54:33;10.10;;;9.10;;
17796;SDS011;55596;53.554;9.916;2023-06-26T02:57:01;10.53;;;9.53;;
17796;SDS011;55596;53.554;9.916;2023-06-26T02:59:28;10.37;;;9.47;;
17796;SDS011;55596;53.554;9.916;2023-06-26T03:01:55;9.83;;;9.03;;
17796;SDS011;55596;53.554;9.916;2023-06-26T03:04:22;12.87;;;9.57;;
17796;SDS011;55596;53.554;9.916;2023-06-26T03:06:49;10.67;;;9.47;;
17796;SDS011;55596;53.554;9.916;2023-06-26T03:09:16;9.90;;;9.00;;
17796;SDS011;55596;53.554;9.916;2023-06-26T03:11:45;10.17;;;9.13;;
17796;SDS011;55596;53.554;9.916;2023-06-26T03:14:12;9.90;;;9.00;;
17796;SDS011;55596;53.554;9.916;2023-06-26T03:16:39;10.37;;;9.47;;
17796;SDS011;55596;53.554;9.916;2023-06-26T03:19:06;10.13;;;9.23;;
17796;SDS011;55596;53.554;9.916;2023-06-26T03:21:34;9.43;;;8.53;;
17796;SDS011;55596;53.554;9.916;2023-06-26T03:24:02;9.70;;;8.80;;
17796;SDS011;55596;53.554;9.916;2023-06-26T03:26:29;9.87;;;8.87;;
17796;SDS011;55596;53.554;9.916;2023-06-26T03:28:57;11.40;;;9.30;;
17796;SDS011;55596;53.554;9.916;2023-06-26T03:31:24;10.00;;;9.10;;
17796;SDS011;55596;53.554;9.916;2023-06-26T03:33:52;10.17;;;9.20;;
17796;SDS011;55596;53.554;9.916;2023-06-26T03:36:19;10.73;;;9.00;;
17796;SDS011;55596;53.554;9.916;2023-06-26T03:38:46;10.70;;;9.30;;
17796;SDS011;55596;53.554;9.916;2023-06-26T03:41:13;9.67;;;8.77;;
17796;SDS011;55596;53.554;9.916;2023-06-26T03:43:40;10.00;;;9.10;;
17796;SDS011;55596;53.554;9.916;2023-06-26T03:46:09;10.30;;;9.30;;
17796;SDS011;55596;53.554;9.916;2023-06-26T03:48:36;10.13;;;9.23;;
17796;SDS011;55596;53.554;9.916;2023-06-26T03:51:03;9.90;;;8.70;;
17796;SDS011;55596;53.554;9.916;2023-06-26T03:53:31;10.30;;;9.03;;
17796;SDS011;55596;53.554;9.916;2023-06-26T03:55:59;9.07;;;8.13;;
17796;SDS011;55596;53.554;9.916;2023-06-26T03:58:26;10.20;;;9.20;;
17796;SDS011;55596;53.554;9.916;2023-06-26T04:00:53;10.07;;;9.07;;
17796;SDS011;55596;53.554;9.916;2023-06-26T04:03:24;9.40;;;8.57;;
17796;SDS011;55596;53.554;9.916;2023-06-26T04:05:51;9.23;;;8.27;;
17796;SDS011;55596;53.554;9.916;2023-06-26T04:08:18;9.73;;;8.77;;
17796;SDS011;55596;53.554;9.916;2023-06-26T04:10:46;10.83;;;8.60;;
17796;SDS011;55596;53.554;9.916;2023-06-26T04:13:13;9.27;;;8.43;;
17796;SDS011;55596;53.554;9.916;2023-06-26T04:15:40;9.67;;;8.20;;
17796;SDS011;55596;53.554;9.916;2023-06-26T04:18:08;15.33;;;8.90;;
17796;SDS011;55596;53.554;9.916;2023-06-26T04:20:38;9.80;;;8.90;;
17796;SDS011;55596;53.554;9.916;2023-06-26T04:23:06;9.07;;;8.17;;
17796;SDS011;55596;53.554;9.916;2023-06-26T04:25:33;9.80;;;8.80;;
17796;SDS011;55596;53.554;9.916;2023-06-26T04:28:03;9.60;;;8.70;;
17796;SDS011;55596;53.554;9.916;2023-06-26T04:30:30;9.47;;;8.60;;
17796;SDS011;55596;53.554;9.916;2023-06-26T04:32:58;9.47;;;8.43;;
17796;SDS011;55596;53.554;9.916;2023-06-26T04:35:26;9.47;;;8.50;;
17796;SDS011;55596;53.554;9.916;2023-06-26T04:37:55;9.50;;;8.70;;
17796;SDS011;55596;53.554;9.916;2023-06-26T04:40:22;10.37;;;8.30;;
17796;SDS011;55596;53.554;9.916;2023-06-26T04:42:50;9.30;;;8.50;;
17796;SDS011;55596;53.554;9.916;2023-06-26T04:45:17;8.83;;;8.03;;
17796;SDS011;55596;53.554;9.916;2023-06-26T04:47:44;13.77;;;8.50;;
17796;SDS011;55596;53.554;9.916;2023-06-26T04:50:11;8.40;;;7.53;;
17796;SDS011;55596;53.554;9.916;2023-06-26T04:52:38;11.03;;;8.20;;
17796;SDS011;55596;53.554;9.916;2023-06-26T04:55:07;9.63;;;8.70;;
17796;SDS011;55596;53.554;9.916;2023-06-26T04:57:34;11.67;;;8.87;;
17796;SDS011;55596;53.554;9.916;2023-06-26T05:00:02;11.43;;;8.47;;
17796;SDS011;55596;53.554;9.916;2023-06-26T05:02:33;11.90;;;8.30;;
17796;SDS011;55596;53.554;9.916;2023-06-26T05:05:00;9.10;;;8.23;;
17796;SDS011;55596;53.554;9.916;2023-06-26T05:07:27;8.40;;;7.70;;
17796;SDS011;55596;53.554;9.916;2023-06-26T05:09:54;8.97;;;8.07;;
17796;SDS011;55596;53.554;9.916;2023-06-26T05:12:23;8.90;;;8.10;;
17796;SDS011;55596;53.554;9.916;2023-06-26T05:14:50;11.90;;;8.27;;
17796;SDS011;55596;53.554;9.916;2023-06-26T05:17:18;8.57;;;7.70;;
17796;SDS011;55596;53.554;9.916;2023-06-26T05:19:45;9.00;;;8.10;;
17796;SDS011;55596;53.554;9.916;2023-06-26T05:22:12;9.18;;;8.27;;
17796;SDS011;55596;53.554;9.916;2023-06-26T05:24:39;8.57;;;7.43;;
17796;SDS011;55596;53.554;9.916;2023-06-26T05:27:07;9.03;;;7.80;;
17796;SDS011;55596;53.554;9.916;2023-06-26T05:29:36;13.05;;;7.43;;
17796;SDS011;55596;53.554;9.916;2023-06-26T05:32:04;8.60;;;7.60;;
17796;SDS011;55596;53.554;9.916;2023-06-26T05:34:31;10.65;;;7.80;;
17796;SDS011;55596;53.554;9.916;2023-06-26T05:36:59;12.40;;;7.63;;
17796;SDS011;55596;53.554;9.916;2023-06-26T05:39:27;9.15;;;7.40;;
17796;SDS011;55596;53.554;9.916;2023-06-26T05:41:54;11.88;;;7.75;;
17796;SDS011;55596;53.554;9.916;2023-06-26T05:44:22;9.88;;;7.20;;
17796;SDS011;55596;53.554;9.916;2023-06-26T05:46:52;9.63;;;7.72;;
17796;SDS011;55596;53.554;9.916;2023-06-26T05:49:22;9.00;;;7.18;;
17796;SDS011;55596;53.554;9.916;2023-06-26T05:51:49;7.93;;;6.63;;
17796;SDS011;55596;53.554;9.916;2023-06-26T05:54:16;8.07;;;6.95;;
17796;SDS011;55596;53.554;9.916;2023-06-26T05:56:44;10.27;;;7.40;;
17796;SDS011;55596;53.554;9.916;2023-06-26T05:59:12;7.90;;;7.10;;
17796;SDS011;55596;53.554;9.916;2023-06-26T06:01:40;8.00;;;7.05;;
17796;SDS011;55596;53.554;9.916;2023-06-26T06:04:09;10.82;;;7.03;;
17796;SDS011;55596;53.554;9.916;2023-06-26T06:06:36;6.95;;;6.20;;
17796;SDS011;55596;53.554;9.916;2023-06-26T06:09:03;8.25;;;6.78;;
17796;SDS011;55596;53.554;9.916;2023-06-26T06:11:31;9.50;;;6.45;;
17796;SDS011;55596;53.554;9.916;2023-06-26T06:13:58;9.43;;;6.88;;
17796;SDS011;55596;53.554;9.916;2023-06-26T06:16:25;10.25;;;6.90;;
17796;SDS011;55596;53.554;9.916;2023-06-26T06:18:54;8.48;;;6.18;;
17796;SDS011;55596;53.554;9.916;2023-06-26T06:21:22;7.00;;;6.35;;
17796;SDS011;55596;53.554;9.916;2023-06-26T06:23:49;7.65;;;6.82;;
17796;SDS011;55596;53.554;9.916;2023-06-26T06:26:16;8.43;;;6.20;;
17796;SDS011;55596;53.554;9.916;2023-06-26T06:28:44;8.43;;;6.60;;
17796;SDS011;55596;53.554;9.916;2023-06-26T06:31:11;7.78;;;6.88;;
17796;SDS011;55596;53.554;9.916;2023-06-26T06:33:38;10.82;;;6.30;;
17796;SDS011;55596;53.554;9.916;2023-06-26T06:36:05;7.03;;;6.30;;
17796;SDS011;55596;53.554;9.916;2023-06-26T06:38:33;11.52;;;6.60;;
17796;SDS011;55596;53.554;9.916;2023-06-26T06:41:01;6.97;;;6.28;;
17796;SDS011;55596;53.554;9.916;2023-06-26T06:43:29;9.32;;;6.00;;
17796;SDS011;55596;53.554;9.916;2023-06-26T06:45:56;8.35;;;6.40;;
17796;SDS011;55596;53.554;9.916;2023-06-26T06:48:23;11.60;;;6.00;;
17796;SDS011;55596;53.554;9.916;2023-06-26T06:50:50;9.10;;;6.30;;
17796;SDS011;55596;53.554;9.916;2023-06-26T06:53:18;10.05;;;6.65;;
17796;SDS011;55596;53.554;9.916;2023-06-26T06:55:48;11.15;;;6.22;;
17796;SDS011;55596;53.554;9.916;2023-06-26T06:58:15;7.53;;;6.53;;
17796;SDS011;55596;53.554;9.916;2023-06-26T07:00:44;8.63;;;6.10;;
17796;SDS011;55596;53.554;9.916;2023-06-26T07:03:12;7.75;;;5.88;;
17796;SDS011;55596;53.554;9.916;2023-06-26T07:05:40;9.82;;;5.95;;
17796;SDS011;55596;53.554;9.916;2023-06-26T07:08:08;8.75;;;5.60;;
17796;SDS011;55596;53.554;9.916;2023-06-26T07:10:35;8.18;;;6.30;;
17796;SDS011;55596;53.554;9.916;2023-06-26T07:13:04;9.27;;;6.60;;
17796;SDS011;55596;53.554;9.916;2023-06-26T07:15:31;9.73;;;6.47;;
17796;SDS011;55596;53.554;9.916;2023-06-26T07:17:58;8.27;;;5.93;;
17796;SDS011;55596;53.554;9.916;2023-06-26T07:20:25;9.25;;;5.93;;
17796;SDS011;55596;53.554;9.916;2023-06-26T07:22:54;10.98;;;6.35;;
17796;SDS011;55596;53.554;9.916;2023-06-26T07:25:21;6.85;;;6.15;;
17796;SDS011;55596;53.554;9.916;2023-06-26T07:27:51;9.73;;;5.65;;
17796;SDS011;55596;53.554;9.916;2023-06-26T07:30:23;6.70;;;5.97;;
17796;SDS011;55596;53.554;9.916;2023-06-26T07:32:50;8.98;;;6.20;;
17796;SDS011;55596;53.554;9.916;2023-06-26T07:35:18;9.02;;;5.80;;
17796;SDS011;55596;53.554;9.916;2023-06-26T07:37:45;10.95;;;5.88;;
17796;SDS011;55596;53.554;9.916;2023-06-26T07:40:12;6.90;;;5.22;;
17796;SDS011;55596;53.554;9.916;2023-06-26T07:42:42;9.55;;;5.80;;
17796;SDS011;55596;53.554;9.916;2023-06-26T07:45:10;9.10;;;5.35;;
17796;SDS011;55596;53.554;9.916;2023-06-26T07:47:38;6.13;;;5.47;;
17796;SDS011;55596;53.554;9.916;2023-06-26T07:50:06;11.25;;;5.40;;
17796;SDS011;55596;53.554;9.916;2023-06-26T07:52:33;7.90;;;5.97;;
17796;SDS011;55596;53.554;9.916;2023-06-26T07:55:01;9.27;;;5.32;;
17796;SDS011;55596;53.554;9.916;2023-06-26T07:57:28;6.43;;;4.97;;
17796;SDS011;55596;53.554;9.916;2023-06-26T07:59:57;6.20;;;4.55;;
17796;SDS011;55596;53.554;9.916;2023-06-26T08:02:26;6.47;;;4.85;;
17796;SDS011;55596;53.554;9.916;2023-06-26T08:04:57;8.05;;;5.32;;
17796;SDS011;55596;53.554;9.916;2023-06-26T08:07:24;5.75;;;4.50;;
17796;SDS011;55596;53.554;9.916;2023-06-26T08:09:51;5.90;;;5.30;;
17796;SDS011;55596;53.554;9.916;2023-06-26T08:12:19;5.30;;;4.80;;
17796;SDS011;55596;53.554;9.916;2023-06-26T08:14:46;9.35;;;4.75;;
17796;SDS011;55596;53.554;9.916;2023-06-26T08:17:13;6.03;;;4.90;;
17796;SDS011;55596;53.554;9.916;2023-06-26T08:19:40;7.25;;;4.97;;
17796;SDS011;55596;53.554;9.916;2023-06-26T08:22:09;7.30;;;4.90;;
17796;SDS011;55596;53.554;9.916;2023-06-26T08:24:37;6.20;;;5.38;;
17796;SDS011;55596;53.554;9.916;2023-06-26T08:27:04;6.15;;;5.40;;
17796;SDS011;55596;53.554;9.916;2023-06-26T08:29:33;8.68;;;5.13;;
17796;SDS011;55596;53.554;9.916;2023-06-26T08:32:00;7.22;;;5.43;;
17796;SDS011;55596;53.554;9.916;2023-06-26T08:34:28;5.82;;;5.20;;
17796;SDS011;55596;53.554;9.916;2023-06-26T08:36:55;7.53;;;4.85;;
17796;SDS011;55596;53.554;9.916;2023-06-26T08:39:24;6.82;;;5.00;;
17796;SDS011;55596;53.554;9.916;2023-06-26T08:41:51;6.35;;;5.13;;
17796;SDS011;55596;53.554;9.916;2023-06-26T08:44:18;9.13;;;5.57;;
17796;SDS011;55596;53.554;9.916;2023-06-26T08:46:48;5.68;;;5.05;;
17796;SDS011;55596;53.554;9.916;2023-06-26T08:49:18;5.60;;;4.90;;
17796;SDS011;55596;53.554;9.916;2023-06-26T08:51:49;8.25;;;5.82;;
17796;SDS011;55596;53.554;9.916;2023-06-26T08:54:19;6.40;;;5.53;;
17796;SDS011;55596;53.554;9.916;2023-06-26T08:56:51;9.32;;;5.90;;
17796;SDS011;55596;53.554;9.916;2023-06-26T08:59:18;8.20;;;5.95;;
17796;SDS011;55596;53.554;9.916;2023-06-26T09:01:46;8.45;;;6.30;;
17796;SDS011;55596;53.554;9.916;2023-06-26T09:04:13;7.80;;;6.38;;
17796;SDS011;55596;53.554;9.916;2023-06-26T09:06:41;9.88;;;6.80;;
17796;SDS011;55596;53.554;9.916;2023-06-26T09:09:09;12.90;;;6.72;;
17796;SDS011;55596;53.554;9.916;2023-06-26T09:11:36;8.35;;;6.78;;
17796;SDS011;55596;53.554;9.916;2023-06-26T09:14:05;9.18;;;7.10;;
17796;SDS011;55596;53.554;9.916;2023-06-26T09:16:39;12.80;;;7.35;;
17796;SDS011;55596;53.554;9.916;2023-06-26T09:19:08;10.60;;;6.82;;
17796;SDS011;55596;53.554;9.916;2023-06-26T09:21:38;9.75;;;7.75;;
17796;SDS011;55596;53.554;9.916;2023-06-26T09:24:06;12.77;;;6.93;;
17796;SDS011;55596;53.554;9.916;2023-06-26T09:26:35;12.02;;;7.60;;
17796;SDS011;55596;53.554;9.916;2023-06-26T09:29:02;9.10;;;7.80;;
17796;SDS011;55596;53.554;9.916;2023-06-26T09:31:31;9.90;;;7.80;;
17796;SDS011;55596;53.554;9.916;2023-06-26T09:33:59;9.10;;;7.07;;
17796;SDS011;55596;53.554;9.916;2023-06-26T09:36:28;11.60;;;7.28;;
17796;SDS011;55596;53.554;9.916;2023-06-26T09:38:58;9.73;;;6.85;;
17796;SDS011;55596;53.554;9.916;2023-06-26T09:41:26;11.98;;;7.07;;
17796;SDS011;55596;53.554;9.916;2023-06-26T09:43:53;11.60;;;6.95;;
17796;SDS011;55596;53.554;9.916;2023-06-26T09:46:24;9.98;;;6.72;;
17796;SDS011;55596;53.554;9.916;2023-06-26T09:48:58;10.68;;;7.43;;
17796;SDS011;55596;53.554;9.916;2023-06-26T09:51:26;9.80;;;6.93;;
17796;SDS011;55596;53.554;9.916;2023-06-26T09:53:53;11.88;;;7.47;;
17796;SDS011;55596;53.554;9.916;2023-06-26T09:56:20;9.10;;;7.72;;
17796;SDS011;55596;53.554;9.916;2023-06-26T09:58:48;10.00;;;9.02;;
17796;SDS011;55596;53.554;9.916;2023-06-26T10:01:16;10.15;;;9.02;;
17796;SDS011;55596;53.554;9.916;2023-06-26T10:03:44;14.63;;;9.40;;
17796;SDS011;55596;53.554;9.916;2023-06-26T10:06:13;14.98;;;9.18;;
17796;SDS011;55596;53.554;9.916;2023-06-26T10:08:40;10.18;;;9.10;;
17796;SDS011;55596;53.554;9.916;2023-06-26T10:11:09;10.18;;;9.18;;
17796;SDS011;55596;53.554;9.916;2023-06-26T10:13:39;14.80;;;10.13;;
17796;SDS011;55596;53.554;9.916;2023-06-26T10:16:11;14.55;;;10.60;;
17796;SDS011;55596;53.554;9.916;2023-06-26T10:18:38;13.57;;;10.85;;
17796;SDS011;55596;53.554;9.916;2023-06-26T10:21:06;13.93;;;10.60;;
17796;SDS011;55596;53.554;9.916;2023-06-26T10:23:36;17.02;;;10.38;;
17796;SDS011;55596;53.554;9.916;2023-06-26T10:26:06;45.60;;;12.10;;
17796;SDS011;55596;53.554;9.916;2023-06-26T10:28:34;18.33;;;10.50;;
17796;SDS011;55596;53.554;9.916;2023-06-26T10:31:02;19.73;;;10.37;;
17796;SDS011;55596;53.554;9.916;2023-06-26T10:33:31;12.70;;;10.07;;
17796;SDS011;55596;53.554;9.916;2023-06-26T10:36:12;12.77;;;9.43;;
17796;SDS011;55596;53.554;9.916;2023-06-26T10:41:24;12.17;;;8.67;;
17796;SDS011;55596;53.554;9.916;2023-06-26T10:43:52;11.23;;;8.13;;
17796;SDS011;55596;53.554;9.916;2023-06-26T10:46:32;12.90;;;9.03;;
17796;SDS011;55596;53.554;9.916;2023-06-26T10:49:00;11.73;;;9.23;;
17796;SDS011;55596;53.554;9.916;2023-06-26T10:51:28;14.33;;;9.20;;
17796;SDS011;55596;53.554;9.916;2023-06-26T10:53:55;10.73;;;8.97;;
17796;SDS011;55596;53.554;9.916;2023-06-26T10:59:12;9.27;;;8.13;;
17796;SDS011;55596;53.554;9.916;2023-06-26T11:01:40;10.13;;;7.72;;
17796;SDS011;55596;53.554;9.916;2023-06-26T11:04:08;9.65;;;7.43;;
17796;SDS011;55596;53.554;9.916;2023-06-26T11:06:37;14.45;;;7.63;;
17796;SDS011;55596;53.554;9.916;2023-06-26T11:09:09;10.57;;;7.20;;
17796;SDS011;55596;53.554;9.916;2023-06-26T11:11:58;12.95;;;7.65;;
17796;SDS011;55596;53.554;9.916;2023-06-26T11:14:31;10.68;;;6.45;;
17796;SDS011;55596;53.554;9.916;2023-06-26T11:17:02;11.95;;;6.50;;
17796;SDS011;55596;53.554;9.916;2023-06-26T11:19:30;15.50;;;6.10;;
17796;SDS011;55596;53.554;9.916;2023-06-26T11:21:58;15.82;;;6.10;;
17796;SDS011;55596;53.554;9.916;2023-06-26T11:24:25;12.10;;;5.85;;
17796;SDS011;55596;53.554;9.916;2023-06-26T11:26:53;12.77;;;4.97;;
17796;SDS011;55596;53.554;9.916;2023-06-26T11:29:20;15.43;;;4.97;;
17796;SDS011;55596;53.554;9.916;2023-06-26T11:31:49;9.40;;;4.68;;
17796;SDS011;55596;53.554;9.916;2023-06-26T11:34:25;12.73;;;4.47;;
17796;SDS011;55596;53.554;9.916;2023-06-26T11:36:56;11.05;;;4.45;;
17796;SDS011;55596;53.554;9.916;2023-06-26T11:39:23;14.73;;;4.18;;
17796;SDS011;55596;53.554;9.916;2023-06-26T11:41:51;13.02;;;4.20;;
17796;SDS011;55596;53.554;9.916;2023-06-26T11:44:18;9.30;;;3.33;;
17796;SDS011;55596;53.554;9.916;2023-06-26T11:46:46;10.32;;;3.78;;
17796;SDS011;55596;53.554;9.916;2023-06-26T11:49:15;8.50;;;3.28;;
17796;SDS011;55596;53.554;9.916;2023-06-26T11:51:43;11.40;;;3.22;;
17796;SDS011;55596;53.554;9.916;2023-06-26T11:54:10;10.00;;;3.13;;
17796;SDS011;55596;53.554;9.916;2023-06-26T11:56:39;10.43;;;2.75;;
17796;SDS011;55596;53.554;9.916;2023-06-26T11:59:08;10.60;;;2.50;;
17796;SDS011;55596;53.554;9.916;2023-06-26T12:01:36;10.88;;;2.95;;
17796;SDS011;55596;53.554;9.916;2023-06-26T12:04:04;6.40;;;2.47;;
17796;SDS011;55596;53.554;9.916;2023-06-26T12:06:33;6.25;;;2.25;;
17796;SDS011;55596;53.554;9.916;2023-06-26T12:09:01;5.60;;;2.17;;
17796;SDS011;55596;53.554;9.916;2023-06-26T12:11:30;8.48;;;2.20;;
17796;SDS011;55596;53.554;9.916;2023-06-26T12:13:57;8.00;;;2.20;;
17796;SDS011;55596;53.554;9.916;2023-06-26T12:16:27;5.18;;;1.90;;
17796;SDS011;55596;53.554;9.916;2023-06-26T12:18:57;5.65;;;2.22;;
17796;SDS011;55596;53.554;9.916;2023-06-26T12:21:28;6.65;;;2.13;;
17796;SDS011;55596;53.554;9.916;2023-06-26T12:24:00;9.63;;;2.70;;
17796;SDS011;55596;53.554;9.916;2023-06-26T12:26:28;10.77;;;2.83;;
17796;SDS011;55596;53.554;9.916;2023-06-26T12:29:01;8.15;;;2.55;;
17796;SDS011;55596;53.554;9.916;2023-06-26T12:31:28;6.85;;;2.10;;
17796;SDS011;55596;53.554;9.916;2023-06-26T12:33:56;6.22;;;2.10;;
17796;SDS011;55596;53.554;9.916;2023-06-26T12:36:23;7.50;;;2.20;;
17796;SDS011;55596;53.554;9.916;2023-06-26T12:38:52;7.88;;;2.53;;
17796;SDS011;55596;53.554;9.916;2023-06-26T12:41:20;7.05;;;2.38;;
17796;SDS011;55596;53.554;9.916;2023-06-26T12:43:55;8.80;;;2.45;;
17796;SDS011;55596;53.554;9.916;2023-06-26T12:46:32;6.28;;;2.38;;
17796;SDS011;55596;53.554;9.916;2023-06-26T12:49:01;6.70;;;2.25;;
17796;SDS011;55596;53.554;9.916;2023-06-26T12:51:28;5.15;;;1.45;;
17796;SDS011;55596;53.554;9.916;2023-06-26T12:53:55;6.18;;;2.05;;
17796;SDS011;55596;53.554;9.916;2023-06-26T12:56:24;7.18;;;2.00;;
17796;SDS011;55596;53.554;9.916;2023-06-26T12:58:51;4.43;;;1.70;;
17796;SDS011;55596;53.554;9.916;2023-06-26T13:01:19;10.30;;;1.80;;
17796;SDS011;55596;53.554;9.916;2023-06-26T13:03:49;10.90;;;2.10;;
17796;SDS011;55596;53.554;9.916;2023-06-26T13:06:17;5.10;;;1.85;;
17796;SDS011;55596;53.554;9.916;2023-06-26T13:08:44;6.15;;;1.92;;
17796;SDS011;55596;53.554;9.916;2023-06-26T13:11:11;6.18;;;1.90;;
17796;SDS011;55596;53.554;9.916;2023-06-26T13:13:43;5.50;;;1.83;;
17796;SDS011;55596;53.554;9.916;2023-06-26T13:16:12;6.72;;;1.95;;
17796;SDS011;55596;53.554;9.916;2023-06-26T13:18:40;7.32;;;1.67;;
17796;SDS011;55596;53.554;9.916;2023-06-26T13:21:07;4.28;;;1.83;;
17796;SDS011;55596;53.554;9.916;2023-06-26T13:23:35;8.30;;;1.92;;
17796;SDS011;55596;53.554;9.916;2023-06-26T13:26:02;5.20;;;1.92;;
17796;SDS011;55596;53.554;9.916;2023-06-26T13:28:29;3.85;;;1.67;;
17796;SDS011;55596;53.554;9.916;2023-06-26T13:30:58;6.70;;;1.80;;
17796;SDS011;55596;53.554;9.916;2023-06-26T13:33:25;3.60;;;1.50;;
17796;SDS011;55596;53.554;9.916;2023-06-26T13:35:53;4.80;;;1.70;;
17796;SDS011;55596;53.554;9.916;2023-06-26T13:38:20;3.72;;;1.50;;
17796;SDS011;55596;53.554;9.916;2023-06-26T13:40:49;3.40;;;1.60;;
17796;SDS011;55596;53.554;9.916;2023-06-26T13:43:17;5.80;;;1.58;;
17796;SDS011;55596;53.554;9.916;2023-06-26T13:45:44;5.45;;;1.45;;
17796;SDS011;55596;53.554;9.916;2023-06-26T13:48:13;6.47;;;1.58;;
17796;SDS011;55596;53.554;9.916;2023-06-26T13:50:40;7.97;;;1.60;;
17796;SDS011;55596;53.554;9.916;2023-06-26T13:53:07;2.83;;;1.40;;
17796;SDS011;55596;53.554;9.916;2023-06-26T13:55:34;3.15;;;1.42;;
17796;SDS011;55596;53.554;9.916;2023-06-26T13:58:03;6.10;;;1.70;;
17796;SDS011;55596;53.554;9.916;2023-06-26T14:00:30;4.88;;;1.75;;
17796;SDS011;55596;53.554;9.916;2023-06-26T14:02:58;7.78;;;1.50;;
17796;SDS011;55596;53.554;9.916;2023-06-26T14:05:27;5.90;;;1.83;;
17796;SDS011;55596;53.554;9.916;2023-06-26T14:07:54;3.88;;;1.70;;
17796;SDS011;55596;53.554;9.916;2023-06-26T14:10:21;4.65;;;1.80;;
17796;SDS011;55596;53.554;9.916;2023-06-26T14:12:49;4.63;;;1.50;;
17796;SDS011;55596;53.554;9.916;2023-06-26T14:15:16;2.22;;;1.20;;
17796;SDS011;55596;53.554;9.916;2023-06-26T14:17:43;3.60;;;1.60;;
17796;SDS011;55596;53.554;9.916;2023-06-26T14:20:15;6.97;;;1.80;;
17796;SDS011;55596;53.554;9.916;2023-06-26T14:22:44;9.18;;;1.90;;
17796;SDS011;55596;53.554;9.916;2023-06-26T14:25:12;4.20;;;1.40;;
17796;SDS011;55596;53.554;9.916;2023-06-26T14:27:40;4.65;;;1.58;;
17796;SDS011;55596;53.554;9.916;2023-06-26T14:30:07;4.13;;;1.35;;
17796;SDS011;55596;53.554;9.916;2023-06-26T14:32:35;4.07;;;1.83;;
17796;SDS011;55596;53.554;9.916;2023-06-26T14:35:03;6.70;;;1.08;;
17796;SDS011;55596;53.554;9.916;2023-06-26T14:37:30;3.83;;;1.30;;
17796;SDS011;55596;53.554;9.916;2023-06-26T14:39:59;3.75;;;1.17;;
17796;SDS011;55596;53.554;9.916;2023-06-26T14:42:26;2.28;;;1.05;;
17796;SDS011;55596;53.554;9.916;2023-06-26T14:44:53;4.57;;;1.10;;
17796;SDS011;55596;53.554;9.916;2023-06-26T14:47:21;2.08;;;1.02;;
17796;SDS011;55596;53.554;9.916;2023-06-26T14:49:48;4.55;;;1.08;;
17796;SDS011;55596;53.554;9.916;2023-06-26T14:52:15;3.30;;;1.00;;
17796;SDS011;55596;53.554;9.916;2023-06-26T14:54:42;4.00;;;1.10;;